Dati Storici

Data ora Umidita' aria (%) Temperatura aria (°C) Rad globale (W/m²) Gonioanemometro (°) Tacoanemometro (m/s) Pioggia (mm)
16-02-2020 23:50 98.1 % 5.684 -73.678 0.024 0 0
16-02-2020 23:40 98.1 % 5.626 -65.069 0.026 0 0
16-02-2020 23:30 98.1 % 5.704 -58.88 0.029 0 0
16-02-2020 23:20 98.1 % 5.942 -20.848 0.673 0 0
16-02-2020 23:10 98.1 % 5.989 -31.742 0.511 0 0
16-02-2020 23:00 98.1 % 6.038 -29.659 0.235 0 0
16-02-2020 22:50 98.1 % 6.07 -7.072 0.629 0 0
16-02-2020 22:40 98.1 % 6.084 -35.612 0.034 0 0
16-02-2020 22:30 98.1 % 6.019 -25.389 0.026 0 0
16-02-2020 22:20 98.1 % 5.998 -26.731 0.894 0 0
16-02-2020 22:10 98.1 % 5.936 -28.049 1.249 0 0
16-02-2020 22:00 98.1 % 6.047 -37.38 0.724 0 0
16-02-2020 21:50 98.1 % 6.455 -42.875 1.753 0 0
16-02-2020 21:40 98 % 6.301 -44.012 0.029 0 0
16-02-2020 21:30 98 % 6.375 -36.418 0.027 0 0
16-02-2020 21:20 98 % 6.626 -20.738 0.542 0 0
16-02-2020 21:10 98 % 6.731 -26.948 0.544 0 0
16-02-2020 21:00 98 % 6.761 -39.922 0.065 0 0
16-02-2020 20:50 98 % 6.956 -34.126 0.032 0 0
16-02-2020 20:40 98 % 7.013 -46.356 0.507 0 0

I dati sono presentati in modo automatico a scopo informativo. In seguito a verifica i dati possono subire modifiche o essere invalidati e non riportati negli archivi definitivi.